sensor_id;sensor_type;location;lat;lon;timestamp;temperature;humidity
39919;DHT22;25589;51.552;13.424;2023-09-30T00:00:15;19.20;99.90
39919;DHT22;25589;51.552;13.424;2023-09-30T00:02:40;19.10;99.90
39919;DHT22;25589;51.552;13.424;2023-09-30T00:05:07;19.10;99.90
39919;DHT22;25589;51.552;13.424;2023-09-30T00:07:33;19.10;99.90
39919;DHT22;25589;51.552;13.424;2023-09-30T00:09:59;18.90;99.90
39919;DHT22;25589;51.552;13.424;2023-09-30T00:12:25;18.80;99.90
39919;DHT22;25589;51.552;13.424;2023-09-30T00:14:51;18.60;99.90
39919;DHT22;25589;51.552;13.424;2023-09-30T00:17:16;18.60;99.90
39919;DHT22;25589;51.552;13.424;2023-09-30T00:19:42;18.60;99.90
39919;DHT22;25589;51.552;13.424;2023-09-30T00:22:07;18.50;99.90
39919;DHT22;25589;51.552;13.424;2023-09-30T00:24:33;18.50;99.90
39919;DHT22;25589;51.552;13.424;2023-09-30T00:26:59;18.50;99.90
39919;DHT22;25589;51.552;13.424;2023-09-30T00:29:25;18.40;99.90
39919;DHT22;25589;51.552;13.424;2023-09-30T00:31:51;18.40;99.90
39919;DHT22;25589;51.552;13.424;2023-09-30T00:34:17;18.50;99.90
39919;DHT22;25589;51.552;13.424;2023-09-30T00:36:43;18.50;99.90
39919;DHT22;25589;51.552;13.424;2023-09-30T00:39:08;18.40;99.90
39919;DHT22;25589;51.552;13.424;2023-09-30T00:41:35;18.50;99.90
39919;DHT22;25589;51.552;13.424;2023-09-30T00:44:02;18.40;99.90
39919;DHT22;25589;51.552;13.424;2023-09-30T00:46:36;18.30;99.90
39919;DHT22;25589;51.552;13.424;2023-09-30T00:51:29;18.30;99.90
39919;DHT22;25589;51.552;13.424;2023-09-30T00:53:58;18.60;99.90
39919;DHT22;25589;51.552;13.424;2023-09-30T00:56:26;18.50;99.90
39919;DHT22;25589;51.552;13.424;2023-09-30T00:58:52;18.60;99.90
39919;DHT22;25589;51.552;13.424;2023-09-30T01:01:19;18.40;99.90
39919;DHT22;25589;51.552;13.424;2023-09-30T01:03:48;18.30;99.90
39919;DHT22;25589;51.552;13.424;2023-09-30T01:06:14;18.30;99.90
39919;DHT22;25589;51.552;13.424;2023-09-30T01:08:40;18.20;99.90
39919;DHT22;25589;51.552;13.424;2023-09-30T01:11:06;18.10;99.90
39919;DHT22;25589;51.552;13.424;2023-09-30T01:13:35;18.10;99.90
39919;DHT22;25589;51.552;13.424;2023-09-30T01:16:05;18.30;99.90
39919;DHT22;25589;51.552;13.424;2023-09-30T01:18:32;18.10;99.90
39919;DHT22;25589;51.552;13.424;2023-09-30T01:21:02;18.20;99.90
39919;DHT22;25589;51.552;13.424;2023-09-30T01:23:30;18.20;99.90
39919;DHT22;25589;51.552;13.424;2023-09-30T01:29:43;18.00;99.90
39919;DHT22;25589;51.552;13.424;2023-09-30T01:32:08;18.10;99.90
39919;DHT22;25589;51.552;13.424;2023-09-30T01:34:35;18.10;99.90
39919;DHT22;25589;51.552;13.424;2023-09-30T01:37:01;18.00;99.90
39919;DHT22;25589;51.552;13.424;2023-09-30T01:39:27;18.00;99.90
39919;DHT22;25589;51.552;13.424;2023-09-30T01:41:52;18.00;99.90
39919;DHT22;25589;51.552;13.424;2023-09-30T01:44:19;17.90;99.90
39919;DHT22;25589;51.552;13.424;2023-09-30T01:46:45;17.80;99.90
39919;DHT22;25589;51.552;13.424;2023-09-30T01:49:11;17.90;99.90
39919;DHT22;25589;51.552;13.424;2023-09-30T01:51:36;17.80;99.90
39919;DHT22;25589;51.552;13.424;2023-09-30T01:54:02;17.80;99.90
39919;DHT22;25589;51.552;13.424;2023-09-30T01:56:28;17.80;99.90
39919;DHT22;25589;51.552;13.424;2023-09-30T01:58:53;17.80;99.90
39919;DHT22;25589;51.552;13.424;2023-09-30T02:01:19;17.70;99.90
39919;DHT22;25589;51.552;13.424;2023-09-30T02:03:45;17.70;99.90
39919;DHT22;25589;51.552;13.424;2023-09-30T02:06:11;17.70;99.90
39919;DHT22;25589;51.552;13.424;2023-09-30T02:08:37;17.50;99.90
39919;DHT22;25589;51.552;13.424;2023-09-30T02:11:03;17.50;99.90
39919;DHT22;25589;51.552;13.424;2023-09-30T02:13:32;17.50;99.90
39919;DHT22;25589;51.552;13.424;2023-09-30T02:15:58;17.50;99.90
39919;DHT22;25589;51.552;13.424;2023-09-30T02:20:50;17.40;99.90
39919;DHT22;25589;51.552;13.424;2023-09-30T02:23:16;17.40;99.90
39919;DHT22;25589;51.552;13.424;2023-09-30T02:25:42;17.30;99.90
39919;DHT22;25589;51.552;13.424;2023-09-30T02:28:09;17.20;99.90
39919;DHT22;25589;51.552;13.424;2023-09-30T02:30:35;17.20;99.90
39919;DHT22;25589;51.552;13.424;2023-09-30T02:33:02;17.20;99.90
39919;DHT22;25589;51.552;13.424;2023-09-30T02:35:30;17.10;99.90
39919;DHT22;25589;51.552;13.424;2023-09-30T02:37:55;17.10;99.90
39919;DHT22;25589;51.552;13.424;2023-09-30T02:40:21;17.20;99.90
39919;DHT22;25589;51.552;13.424;2023-09-30T02:42:50;17.10;99.90
39919;DHT22;25589;51.552;13.424;2023-09-30T02:45:16;17.00;99.90
39919;DHT22;25589;51.552;13.424;2023-09-30T02:47:44;17.00;99.90
39919;DHT22;25589;51.552;13.424;2023-09-30T02:50:09;16.90;99.90
39919;DHT22;25589;51.552;13.424;2023-09-30T02:52:39;16.70;99.90
39919;DHT22;25589;51.552;13.424;2023-09-30T02:55:10;16.80;99.90
39919;DHT22;25589;51.552;13.424;2023-09-30T02:57:36;16.70;99.90
39919;DHT22;25589;51.552;13.424;2023-09-30T03:00:05;16.60;99.90
39919;DHT22;25589;51.552;13.424;2023-09-30T03:02:52;16.70;99.90
39919;DHT22;25589;51.552;13.424;2023-09-30T03:05:19;16.50;99.90
39919;DHT22;25589;51.552;13.424;2023-09-30T03:07:45;16.50;99.90
39919;DHT22;25589;51.552;13.424;2023-09-30T03:10:11;16.50;99.90
39919;DHT22;25589;51.552;13.424;2023-09-30T03:12:38;16.50;99.90
39919;DHT22;25589;51.552;13.424;2023-09-30T03:15:04;16.40;99.90
39919;DHT22;25589;51.552;13.424;2023-09-30T03:17:33;16.30;99.90
39919;DHT22;25589;51.552;13.424;2023-09-30T03:20:00;16.30;99.90
39919;DHT22;25589;51.552;13.424;2023-09-30T03:22:26;15.70;99.90
39919;DHT22;25589;51.552;13.424;2023-09-30T03:24:54;16.10;99.90
39919;DHT22;25589;51.552;13.424;2023-09-30T03:27:19;16.40;99.90
39919;DHT22;25589;51.552;13.424;2023-09-30T03:29:46;15.90;99.90
39919;DHT22;25589;51.552;13.424;2023-09-30T03:32:11;15.90;99.90
39919;DHT22;25589;51.552;13.424;2023-09-30T03:34:37;15.80;99.90
39919;DHT22;25589;51.552;13.424;2023-09-30T03:37:02;15.80;99.90
39919;DHT22;25589;51.552;13.424;2023-09-30T03:39:29;15.80;99.90
39919;DHT22;25589;51.552;13.424;2023-09-30T03:41:55;15.80;99.90
39919;DHT22;25589;51.552;13.424;2023-09-30T03:44:22;15.20;99.90
39919;DHT22;25589;51.552;13.424;2023-09-30T03:46:48;15.60;99.90
39919;DHT22;25589;51.552;13.424;2023-09-30T03:49:15;15.50;99.90
39919;DHT22;25589;51.552;13.424;2023-09-30T03:51:42;15.50;99.90
39919;DHT22;25589;51.552;13.424;2023-09-30T03:54:08;15.20;99.90
39919;DHT22;25589;51.552;13.424;2023-09-30T03:56:34;15.60;99.90
39919;DHT22;25589;51.552;13.424;2023-09-30T03:59:02;15.50;99.90
39919;DHT22;25589;51.552;13.424;2023-09-30T04:01:28;15.60;99.90
39919;DHT22;25589;51.552;13.424;2023-09-30T04:03:53;15.40;99.90
39919;DHT22;25589;51.552;13.424;2023-09-30T04:06:22;14.90;99.90
39919;DHT22;25589;51.552;13.424;2023-09-30T04:08:47;15.40;99.90
39919;DHT22;25589;51.552;13.424;2023-09-30T04:11:13;18.30;99.90
39919;DHT22;25589;51.552;13.424;2023-09-30T04:13:44;15.30;99.90
39919;DHT22;25589;51.552;13.424;2023-09-30T04:16:10;15.60;99.90
39919;DHT22;25589;51.552;13.424;2023-09-30T04:18:35;15.40;99.90
39919;DHT22;25589;51.552;13.424;2023-09-30T04:21:01;15.20;99.90
39919;DHT22;25589;51.552;13.424;2023-09-30T04:23:27;15.10;99.90
39919;DHT22;25589;51.552;13.424;2023-09-30T04:25:53;15.10;99.90
39919;DHT22;25589;51.552;13.424;2023-09-30T04:28:18;15.10;99.90
39919;DHT22;25589;51.552;13.424;2023-09-30T04:30:50;14.90;99.90
39919;DHT22;25589;51.552;13.424;2023-09-30T04:33:16;15.20;99.90
39919;DHT22;25589;51.552;13.424;2023-09-30T04:35:45;15.20;99.90
39919;DHT22;25589;51.552;13.424;2023-09-30T04:38:11;15.20;99.90
39919;DHT22;25589;51.552;13.424;2023-09-30T04:40:37;15.30;99.90
39919;DHT22;25589;51.552;13.424;2023-09-30T04:43:03;15.50;99.90
39919;DHT22;25589;51.552;13.424;2023-09-30T04:45:28;15.00;99.90
39919;DHT22;25589;51.552;13.424;2023-09-30T04:47:54;14.90;99.90
39919;DHT22;25589;51.552;13.424;2023-09-30T04:50:23;14.80;99.90
39919;DHT22;25589;51.552;13.424;2023-09-30T04:52:50;15.10;99.90
39919;DHT22;25589;51.552;13.424;2023-09-30T04:55:16;14.80;99.90
39919;DHT22;25589;51.552;13.424;2023-09-30T04:57:43;14.70;99.90
39919;DHT22;25589;51.552;13.424;2023-09-30T05:00:15;14.80;99.90
39919;DHT22;25589;51.552;13.424;2023-09-30T05:02:40;14.80;99.90
39919;DHT22;25589;51.552;13.424;2023-09-30T05:05:06;14.70;99.90
39919;DHT22;25589;51.552;13.424;2023-09-30T05:07:32;14.80;99.90
39919;DHT22;25589;51.552;13.424;2023-09-30T05:09:58;15.20;99.90
39919;DHT22;25589;51.552;13.424;2023-09-30T05:12:25;14.80;99.90
39919;DHT22;25589;51.552;13.424;2023-09-30T05:14:51;14.80;99.90
39919;DHT22;25589;51.552;13.424;2023-09-30T05:17:16;14.80;99.90
39919;DHT22;25589;51.552;13.424;2023-09-30T05:19:42;14.80;99.90
39919;DHT22;25589;51.552;13.424;2023-09-30T05:22:07;14.60;99.90
39919;DHT22;25589;51.552;13.424;2023-09-30T05:24:33;14.90;99.90
39919;DHT22;25589;51.552;13.424;2023-09-30T05:27:00;15.10;99.90
39919;DHT22;25589;51.552;13.424;2023-09-30T05:29:26;15.50;99.90
39919;DHT22;25589;51.552;13.424;2023-09-30T05:31:52;15.10;99.90
39919;DHT22;25589;51.552;13.424;2023-09-30T05:34:18;15.10;99.90
39919;DHT22;25589;51.552;13.424;2023-09-30T05:36:44;15.20;99.90
39919;DHT22;25589;51.552;13.424;2023-09-30T05:39:10;15.20;99.90
39919;DHT22;25589;51.552;13.424;2023-09-30T05:41:36;15.20;99.90
39919;DHT22;25589;51.552;13.424;2023-09-30T05:44:03;15.20;99.90
39919;DHT22;25589;51.552;13.424;2023-09-30T05:46:30;15.60;99.90
39919;DHT22;25589;51.552;13.424;2023-09-30T05:48:56;15.20;99.90
39919;DHT22;25589;51.552;13.424;2023-09-30T05:51:22;15.20;99.90
39919;DHT22;25589;51.552;13.424;2023-09-30T05:53:47;15.20;99.90
39919;DHT22;25589;51.552;13.424;2023-09-30T05:56:13;15.20;99.90
39919;DHT22;25589;51.552;13.424;2023-09-30T05:58:41;15.00;99.90
39919;DHT22;25589;51.552;13.424;2023-09-30T06:01:10;15.20;99.90
39919;DHT22;25589;51.552;13.424;2023-09-30T06:03:39;14.90;99.90
39919;DHT22;25589;51.552;13.424;2023-09-30T06:06:12;15.00;99.90
39919;DHT22;25589;51.552;13.424;2023-09-30T06:11:04;14.40;99.90
39919;DHT22;25589;51.552;13.424;2023-09-30T06:13:32;14.80;99.90
39919;DHT22;25589;51.552;13.424;2023-09-30T06:15:58;15.10;99.90
39919;DHT22;25589;51.552;13.424;2023-09-30T06:20:50;14.60;99.90
39919;DHT22;25589;51.552;13.424;2023-09-30T06:23:16;14.60;99.90
39919;DHT22;25589;51.552;13.424;2023-09-30T06:25:42;14.60;99.90
39919;DHT22;25589;51.552;13.424;2023-09-30T06:28:08;14.60;99.90
39919;DHT22;25589;51.552;13.424;2023-09-30T06:30:35;14.50;99.90
39919;DHT22;25589;51.552;13.424;2023-09-30T06:33:01;14.50;99.90
39919;DHT22;25589;51.552;13.424;2023-09-30T06:35:27;14.50;99.90
39919;DHT22;25589;51.552;13.424;2023-09-30T06:37:53;14.60;99.90
39919;DHT22;25589;51.552;13.424;2023-09-30T06:40:19;14.60;99.90
39919;DHT22;25589;51.552;13.424;2023-09-30T06:42:45;14.60;99.90
39919;DHT22;25589;51.552;13.424;2023-09-30T06:45:10;14.70;99.90
39919;DHT22;25589;51.552;13.424;2023-09-30T06:47:38;14.20;99.90
39919;DHT22;25589;51.552;13.424;2023-09-30T06:50:08;14.90;99.90
39919;DHT22;25589;51.552;13.424;2023-09-30T06:52:34;15.60;99.90
39919;DHT22;25589;51.552;13.424;2023-09-30T06:55:03;14.70;99.90
39919;DHT22;25589;51.552;13.424;2023-09-30T06:57:32;14.70;99.90
39919;DHT22;25589;51.552;13.424;2023-09-30T06:59:57;15.10;99.90
39919;DHT22;25589;51.552;13.424;2023-09-30T07:02:23;14.60;99.90
39919;DHT22;25589;51.552;13.424;2023-09-30T07:04:49;14.90;99.90
39919;DHT22;25589;51.552;13.424;2023-09-30T07:07:15;15.00;99.90
39919;DHT22;25589;51.552;13.424;2023-09-30T07:09:42;14.90;99.90
39919;DHT22;25589;51.552;13.424;2023-09-30T07:12:08;15.30;99.90
39919;DHT22;25589;51.552;13.424;2023-09-30T07:14:33;15.20;99.90
39919;DHT22;25589;51.552;13.424;2023-09-30T07:16:59;15.30;99.90
39919;DHT22;25589;51.552;13.424;2023-09-30T07:19:24;15.40;99.90
39919;DHT22;25589;51.552;13.424;2023-09-30T07:21:50;16.20;99.90
39919;DHT22;25589;51.552;13.424;2023-09-30T07:24:15;15.50;99.90
39919;DHT22;25589;51.552;13.424;2023-09-30T07:26:41;15.60;99.90
39919;DHT22;25589;51.552;13.424;2023-09-30T07:29:06;15.70;99.90
39919;DHT22;25589;51.552;13.424;2023-09-30T07:31:35;15.60;99.90
39919;DHT22;25589;51.552;13.424;2023-09-30T07:34:01;15.80;99.90
39919;DHT22;25589;51.552;13.424;2023-09-30T07:36:27;15.80;99.90
39919;DHT22;25589;51.552;13.424;2023-09-30T07:38:52;15.80;99.90
39919;DHT22;25589;51.552;13.424;2023-09-30T07:41:18;15.90;99.90
39919;DHT22;25589;51.552;13.424;2023-09-30T07:43:44;15.90;99.90
39919;DHT22;25589;51.552;13.424;2023-09-30T07:46:09;15.80;99.90
39919;DHT22;25589;51.552;13.424;2023-09-30T07:48:35;16.00;99.90
39919;DHT22;25589;51.552;13.424;2023-09-30T07:51:01;16.20;99.90
39919;DHT22;25589;51.552;13.424;2023-09-30T07:53:27;16.30;99.90
39919;DHT22;25589;51.552;13.424;2023-09-30T07:55:53;16.30;99.90
39919;DHT22;25589;51.552;13.424;2023-09-30T07:58:20;16.30;99.90
39919;DHT22;25589;51.552;13.424;2023-09-30T08:00:45;16.30;99.90
39919;DHT22;25589;51.552;13.424;2023-09-30T08:03:11;16.80;99.90
39919;DHT22;25589;51.552;13.424;2023-09-30T08:05:37;16.40;99.90
39919;DHT22;25589;51.552;13.424;2023-09-30T08:08:03;16.10;99.90
39919;DHT22;25589;51.552;13.424;2023-09-30T08:10:29;16.50;99.90
39919;DHT22;25589;51.552;13.424;2023-09-30T08:12:57;16.40;99.90
39919;DHT22;25589;51.552;13.424;2023-09-30T08:15:24;16.40;99.90
39919;DHT22;25589;51.552;13.424;2023-09-30T08:17:50;16.70;99.90
39919;DHT22;25589;51.552;13.424;2023-09-30T08:20:16;16.50;99.90
39919;DHT22;25589;51.552;13.424;2023-09-30T08:22:41;16.60;99.90
39919;DHT22;25589;51.552;13.424;2023-09-30T08:25:08;16.60;99.90
39919;DHT22;25589;51.552;13.424;2023-09-30T08:27:33;16.60;99.90
39919;DHT22;25589;51.552;13.424;2023-09-30T08:29:59;16.60;99.90
39919;DHT22;25589;51.552;13.424;2023-09-30T08:32:25;16.60;99.90
39919;DHT22;25589;51.552;13.424;2023-09-30T08:34:50;16.70;99.90
39919;DHT22;25589;51.552;13.424;2023-09-30T08:37:16;16.70;99.90
39919;DHT22;25589;51.552;13.424;2023-09-30T08:39:42;16.80;99.90
39919;DHT22;25589;51.552;13.424;2023-09-30T08:42:10;16.80;99.90
39919;DHT22;25589;51.552;13.424;2023-09-30T08:44:39;17.20;99.90
39919;DHT22;25589;51.552;13.424;2023-09-30T08:47:06;16.80;99.90
39919;DHT22;25589;51.552;13.424;2023-09-30T08:49:36;16.80;99.90
39919;DHT22;25589;51.552;13.424;2023-09-30T08:52:02;16.80;99.90
39919;DHT22;25589;51.552;13.424;2023-09-30T08:54:29;16.80;99.90
39919;DHT22;25589;51.552;13.424;2023-09-30T08:56:56;16.40;99.90
39919;DHT22;25589;51.552;13.424;2023-09-30T08:59:23;16.80;99.90
39919;DHT22;25589;51.552;13.424;2023-09-30T09:01:49;16.80;99.90
39919;DHT22;25589;51.552;13.424;2023-09-30T09:04:15;16.90;99.90
39919;DHT22;25589;51.552;13.424;2023-09-30T09:06:41;17.20;99.90
39919;DHT22;25589;51.552;13.424;2023-09-30T09:09:16;17.10;99.90
39919;DHT22;25589;51.552;13.424;2023-09-30T09:11:45;17.20;99.90
39919;DHT22;25589;51.552;13.424;2023-09-30T09:14:11;17.30;99.90
39919;DHT22;25589;51.552;13.424;2023-09-30T09:16:37;17.30;99.90
39919;DHT22;25589;51.552;13.424;2023-09-30T09:19:15;17.90;99.90
39919;DHT22;25589;51.552;13.424;2023-09-30T09:22:01;17.70;99.90
39919;DHT22;25589;51.552;13.424;2023-09-30T09:24:33;17.80;99.90
39919;DHT22;25589;51.552;13.424;2023-09-30T09:27:17;17.90;99.90
39919;DHT22;25589;51.552;13.424;2023-09-30T09:29:45;18.00;99.90
39919;DHT22;25589;51.552;13.424;2023-09-30T09:32:16;17.80;99.90
39919;DHT22;25589;51.552;13.424;2023-09-30T09:34:44;17.90;99.90
39919;DHT22;25589;51.552;13.424;2023-09-30T09:37:19;18.00;99.90
39919;DHT22;25589;51.552;13.424;2023-09-30T09:42:41;18.50;99.90
39919;DHT22;25589;51.552;13.424;2023-09-30T09:45:07;18.50;99.90
39919;DHT22;25589;51.552;13.424;2023-09-30T09:47:34;18.70;99.90
39919;DHT22;25589;51.552;13.424;2023-09-30T09:52:30;18.60;99.90
39919;DHT22;25589;51.552;13.424;2023-09-30T09:54:57;19.00;99.90
39919;DHT22;25589;51.552;13.424;2023-09-30T09:57:24;19.10;99.90
39919;DHT22;25589;51.552;13.424;2023-09-30T09:59:52;19.30;99.90
39919;DHT22;25589;51.552;13.424;2023-09-30T10:02:19;19.40;99.90
39919;DHT22;25589;51.552;13.424;2023-09-30T10:04:45;19.70;99.90
39919;DHT22;25589;51.552;13.424;2023-09-30T10:07:16;19.50;99.90
39919;DHT22;25589;51.552;13.424;2023-09-30T10:09:47;19.50;99.90
39919;DHT22;25589;51.552;13.424;2023-09-30T10:12:15;19.40;99.90
39919;DHT22;25589;51.552;13.424;2023-09-30T10:14:41;19.40;99.90
39919;DHT22;25589;51.552;13.424;2023-09-30T10:17:07;19.60;99.90
39919;DHT22;25589;51.552;13.424;2023-09-30T10:19:32;19.60;99.90
39919;DHT22;25589;51.552;13.424;2023-09-30T10:24:42;20.10;99.90
39919;DHT22;25589;51.552;13.424;2023-09-30T10:38:36;20.50;99.90
39919;DHT22;25589;51.552;13.424;2023-09-30T10:41:03;20.60;99.90
39919;DHT22;25589;51.552;13.424;2023-09-30T10:43:37;20.80;99.90
39919;DHT22;25589;51.552;13.424;2023-09-30T10:46:30;20.70;99.90
39919;DHT22;25589;51.552;13.424;2023-09-30T10:48:56;20.80;99.90
39919;DHT22;25589;51.552;13.424;2023-09-30T10:51:23;20.60;99.90
39919;DHT22;25589;51.552;13.424;2023-09-30T10:53:53;20.30;99.90
39919;DHT22;25589;51.552;13.424;2023-09-30T10:56:23;20.00;99.90
39919;DHT22;25589;51.552;13.424;2023-09-30T10:58:52;20.00;99.90
39919;DHT22;25589;51.552;13.424;2023-09-30T11:01:20;19.90;99.90
39919;DHT22;25589;51.552;13.424;2023-09-30T11:03:46;20.00;99.90
39919;DHT22;25589;51.552;13.424;2023-09-30T11:06:13;20.10;99.90
39919;DHT22;25589;51.552;13.424;2023-09-30T11:08:52;20.40;99.90
39919;DHT22;25589;51.552;13.424;2023-09-30T11:11:18;20.70;99.90
39919;DHT22;25589;51.552;13.424;2023-09-30T11:13:44;20.70;99.90
39919;DHT22;25589;51.552;13.424;2023-09-30T11:16:10;20.70;99.90
39919;DHT22;25589;51.552;13.424;2023-09-30T11:18:36;20.60;99.90
39919;DHT22;25589;51.552;13.424;2023-09-30T11:21:05;20.70;99.90
39919;DHT22;25589;51.552;13.424;2023-09-30T11:23:31;21.00;99.90
39919;DHT22;25589;51.552;13.424;2023-09-30T11:25:57;21.10;99.90
39919;DHT22;25589;51.552;13.424;2023-09-30T11:28:22;21.30;99.90
39919;DHT22;25589;51.552;13.424;2023-09-30T11:30:58;21.40;99.90
39919;DHT22;25589;51.552;13.424;2023-09-30T11:33:24;22.00;99.20
39919;DHT22;25589;51.552;13.424;2023-09-30T11:36:04;22.00;99.20
39919;DHT22;25589;51.552;13.424;2023-09-30T11:38:32;22.20;98.40
39919;DHT22;25589;51.552;13.424;2023-09-30T11:41:05;22.10;98.20
39919;DHT22;25589;51.552;13.424;2023-09-30T11:43:32;22.00;97.70
39919;DHT22;25589;51.552;13.424;2023-09-30T11:46:06;21.90;97.50
39919;DHT22;25589;51.552;13.424;2023-09-30T11:48:37;21.70;97.20
39919;DHT22;25589;51.552;13.424;2023-09-30T11:51:03;22.10;97.10
39919;DHT22;25589;51.552;13.424;2023-09-30T11:53:30;22.30;96.70
39919;DHT22;25589;51.552;13.424;2023-09-30T11:55:57;22.70;95.80
39919;DHT22;25589;51.552;13.424;2023-09-30T11:58:25;22.70;95.60
39919;DHT22;25589;51.552;13.424;2023-09-30T12:00:57;22.80;95.00
39919;DHT22;25589;51.552;13.424;2023-09-30T12:03:25;23.10;94.60
39919;DHT22;25589;51.552;13.424;2023-09-30T12:05:53;22.60;93.70
39919;DHT22;25589;51.552;13.424;2023-09-30T12:08:21;22.60;93.90
39919;DHT22;25589;51.552;13.424;2023-09-30T12:10:47;22.50;93.20
39919;DHT22;25589;51.552;13.424;2023-09-30T12:13:13;22.30;93.10
39919;DHT22;25589;51.552;13.424;2023-09-30T12:15:41;22.00;93.20
39919;DHT22;25589;51.552;13.424;2023-09-30T12:18:06;21.80;93.30
39919;DHT22;25589;51.552;13.424;2023-09-30T12:20:32;21.60;93.40
39919;DHT22;25589;51.552;13.424;2023-09-30T12:22:58;21.40;94.20
39919;DHT22;25589;51.552;13.424;2023-09-30T12:25:24;21.30;94.60
39919;DHT22;25589;51.552;13.424;2023-09-30T12:27:50;21.40;94.50
39919;DHT22;25589;51.552;13.424;2023-09-30T12:30:16;21.60;94.50
39919;DHT22;25589;51.552;13.424;2023-09-30T12:32:45;21.90;94.30
39919;DHT22;25589;51.552;13.424;2023-09-30T12:35:11;22.30;93.30
39919;DHT22;25589;51.552;13.424;2023-09-30T12:37:37;22.40;92.50
39919;DHT22;25589;51.552;13.424;2023-09-30T12:40:05;22.50;91.90
39919;DHT22;25589;51.552;13.424;2023-09-30T12:42:32;22.50;91.40
39919;DHT22;25589;51.552;13.424;2023-09-30T12:45:00;22.40;91.30
39919;DHT22;25589;51.552;13.424;2023-09-30T12:47:26;22.40;90.90
39919;DHT22;25589;51.552;13.424;2023-09-30T12:49:52;22.20;91.20
39919;DHT22;25589;51.552;13.424;2023-09-30T12:52:20;22.20;91.40
39919;DHT22;25589;51.552;13.424;2023-09-30T12:54:45;22.30;91.50
39919;DHT22;25589;51.552;13.424;2023-09-30T12:57:12;22.10;91.50
39919;DHT22;25589;51.552;13.424;2023-09-30T12:59:39;21.90;91.50
39919;DHT22;25589;51.552;13.424;2023-09-30T13:02:04;21.80;91.90
39919;DHT22;25589;51.552;13.424;2023-09-30T13:04:31;21.70;92.10
39919;DHT22;25589;51.552;13.424;2023-09-30T13:06:56;21.60;92.00
39919;DHT22;25589;51.552;13.424;2023-09-30T13:09:22;21.70;91.90
39919;DHT22;25589;51.552;13.424;2023-09-30T13:11:48;22.00;91.50
39919;DHT22;25589;51.552;13.424;2023-09-30T13:14:14;22.20;91.30
39919;DHT22;25589;51.552;13.424;2023-09-30T13:16:40;22.10;90.60
39919;DHT22;25589;51.552;13.424;2023-09-30T13:19:05;22.10;91.50
39919;DHT22;25589;51.552;13.424;2023-09-30T13:21:31;22.30;91.00
39919;DHT22;25589;51.552;13.424;2023-09-30T13:23:56;22.40;90.50
39919;DHT22;25589;51.552;13.424;2023-09-30T13:26:22;22.50;90.30
39919;DHT22;25589;51.552;13.424;2023-09-30T13:28:47;22.70;89.70
39919;DHT22;25589;51.552;13.424;2023-09-30T13:31:13;23.10;87.90
39919;DHT22;25589;51.552;13.424;2023-09-30T13:33:38;23.20;88.60
39919;DHT22;25589;51.552;13.424;2023-09-30T13:36:04;23.30;87.30
39919;DHT22;25589;51.552;13.424;2023-09-30T13:38:30;23.40;87.00
39919;DHT22;25589;51.552;13.424;2023-09-30T13:40:56;23.70;86.10
39919;DHT22;25589;51.552;13.424;2023-09-30T13:43:21;23.80;84.80
39919;DHT22;25589;51.552;13.424;2023-09-30T13:45:47;23.70;84.70
39919;DHT22;25589;51.552;13.424;2023-09-30T13:48:14;23.60;84.10
39919;DHT22;25589;51.552;13.424;2023-09-30T13:50:39;23.40;85.90
39919;DHT22;25589;51.552;13.424;2023-09-30T13:53:05;23.40;85.40
39919;DHT22;25589;51.552;13.424;2023-09-30T13:55:30;23.40;84.10
39919;DHT22;25589;51.552;13.424;2023-09-30T13:57:56;23.30;82.90
39919;DHT22;25589;51.552;13.424;2023-09-30T14:00:22;23.30;82.80
39919;DHT22;25589;51.552;13.424;2023-09-30T14:02:47;23.30;82.20
39919;DHT22;25589;51.552;13.424;2023-09-30T14:05:13;23.20;81.60
39919;DHT22;25589;51.552;13.424;2023-09-30T14:07:39;23.20;82.30
39919;DHT22;25589;51.552;13.424;2023-09-30T14:10:06;23.40;82.30
39919;DHT22;25589;51.552;13.424;2023-09-30T14:12:32;23.50;84.20
39919;DHT22;25589;51.552;13.424;2023-09-30T14:14:58;23.40;85.50
39919;DHT22;25589;51.552;13.424;2023-09-30T14:17:23;23.60;84.70
39919;DHT22;25589;51.552;13.424;2023-09-30T14:19:51;23.40;84.10
39919;DHT22;25589;51.552;13.424;2023-09-30T14:22:16;23.50;82.80
39919;DHT22;25589;51.552;13.424;2023-09-30T14:24:42;23.40;83.30
39919;DHT22;25589;51.552;13.424;2023-09-30T14:27:08;23.10;84.20
39919;DHT22;25589;51.552;13.424;2023-09-30T14:29:34;22.70;84.40
39919;DHT22;25589;51.552;13.424;2023-09-30T14:31:59;22.70;84.50
39919;DHT22;25589;51.552;13.424;2023-09-30T14:34:25;22.40;84.90
39919;DHT22;25589;51.552;13.424;2023-09-30T14:36:51;22.20;85.00
39919;DHT22;25589;51.552;13.424;2023-09-30T14:39:17;22.20;86.00
39919;DHT22;25589;51.552;13.424;2023-09-30T14:41:44;22.30;85.60
39919;DHT22;25589;51.552;13.424;2023-09-30T14:44:09;22.30;85.20
39919;DHT22;25589;51.552;13.424;2023-09-30T14:46:37;22.50;84.60
39919;DHT22;25589;51.552;13.424;2023-09-30T14:49:03;22.70;82.80
39919;DHT22;25589;51.552;13.424;2023-09-30T14:51:29;22.80;81.10
39919;DHT22;25589;51.552;13.424;2023-09-30T14:53:54;23.00;80.80
39919;DHT22;25589;51.552;13.424;2023-09-30T14:56:20;23.10;79.60
39919;DHT22;25589;51.552;13.424;2023-09-30T14:58:46;23.30;79.20
39919;DHT22;25589;51.552;13.424;2023-09-30T15:01:12;23.10;78.90
39919;DHT22;25589;51.552;13.424;2023-09-30T15:03:40;23.10;78.90
39919;DHT22;25589;51.552;13.424;2023-09-30T15:06:07;23.20;78.60
39919;DHT22;25589;51.552;13.424;2023-09-30T15:08:33;23.20;78.10
39919;DHT22;25589;51.552;13.424;2023-09-30T15:10:59;23.20;79.50
39919;DHT22;25589;51.552;13.424;2023-09-30T15:13:25;23.00;78.50
39919;DHT22;25589;51.552;13.424;2023-09-30T15:15:51;22.90;78.50
39919;DHT22;25589;51.552;13.424;2023-09-30T15:18:16;22.70;78.70
39919;DHT22;25589;51.552;13.424;2023-09-30T15:20:42;22.50;79.30
39919;DHT22;25589;51.552;13.424;2023-09-30T15:23:09;22.60;79.80
39919;DHT22;25589;51.552;13.424;2023-09-30T15:25:42;22.70;79.50
39919;DHT22;25589;51.552;13.424;2023-09-30T15:28:09;22.80;79.40
39919;DHT22;25589;51.552;13.424;2023-09-30T15:30:35;22.90;79.50
39919;DHT22;25589;51.552;13.424;2023-09-30T15:33:00;23.00;79.60
39919;DHT22;25589;51.552;13.424;2023-09-30T15:35:28;23.10;79.40
39919;DHT22;25589;51.552;13.424;2023-09-30T15:37:53;23.30;78.90
39919;DHT22;25589;51.552;13.424;2023-09-30T15:40:19;23.30;78.50
39919;DHT22;25589;51.552;13.424;2023-09-30T15:42:44;23.40;78.00
39919;DHT22;25589;51.552;13.424;2023-09-30T15:45:11;23.40;76.80